createdAt,value
2023-08-08T00:00:56.172Z,11.90
2023-08-08T00:05:59.339Z,11.90
2023-08-08T00:11:02.572Z,11.70
2023-08-08T00:16:07.309Z,11.70
2023-08-08T00:21:10.595Z,11.70
2023-08-08T00:26:13.782Z,11.70
2023-08-08T00:31:20.983Z,11.80
2023-08-08T00:36:25.119Z,11.80
2023-08-08T00:41:28.484Z,11.80
2023-08-08T00:46:33.717Z,11.70
2023-08-08T00:51:37.018Z,11.60
2023-08-08T00:56:40.207Z,11.80
2023-08-08T01:01:44.953Z,11.70
2023-08-08T01:06:53.857Z,11.60
2023-08-08T01:11:57.966Z,11.40
2023-08-08T01:17:03.378Z,11.50
2023-08-08T01:22:08.953Z,11.60
2023-08-08T01:27:13.652Z,11.70
2023-08-08T01:32:17.110Z,11.70
2023-08-08T01:37:23.247Z,11.70
2023-08-08T01:42:28.596Z,11.80
2023-08-08T01:47:32.277Z,11.80
2023-08-08T01:52:35.474Z,11.90
2023-08-08T01:57:40.147Z,12.00
2023-08-08T02:02:43.487Z,11.80
2023-08-08T02:07:47.223Z,11.60
2023-08-08T02:12:51.809Z,11.60
2023-08-08T02:17:55.102Z,11.70
2023-08-08T02:22:58.288Z,11.80
2023-08-08T02:28:03.042Z,11.50
2023-08-08T02:33:06.688Z,11.50
2023-08-08T02:38:09.955Z,11.40
2023-08-08T02:43:14.533Z,11.30
2023-08-08T02:48:17.681Z,11.50
2023-08-08T02:53:20.966Z,11.60
2023-08-08T02:58:25.560Z,11.60
2023-08-08T03:03:28.739Z,11.70
2023-08-08T03:08:32.013Z,11.60
2023-08-08T03:13:38.348Z,11.60
2023-08-08T03:18:41.547Z,11.60
2023-08-08T03:23:46.250Z,11.60
2023-08-08T03:28:51.914Z,11.20
2023-08-08T03:33:55.218Z,11.00
2023-08-08T03:38:58.435Z,11.10
2023-08-08T03:44:03.936Z,11.20
2023-08-08T03:49:07.286Z,11.00
2023-08-08T03:54:10.631Z,10.90
2023-08-08T03:59:15.317Z,11.10
2023-08-08T04:04:18.521Z,11.00
2023-08-08T04:09:22.144Z,11.00
2023-08-08T04:14:26.910Z,11.00
2023-08-08T04:19:30.204Z,10.90
2023-08-08T04:24:33.343Z,11.00
2023-08-08T04:29:38.248Z,11.20
2023-08-08T04:34:41.406Z,11.20
2023-08-08T04:39:44.938Z,11.20
2023-08-08T04:44:49.592Z,11.40
2023-08-08T04:49:53.200Z,11.40
2023-08-08T04:54:56.541Z,11.20
2023-08-08T05:00:04.247Z,11.20
2023-08-08T05:05:08.312Z,11.40
2023-08-08T05:10:12.117Z,11.40
2023-08-08T05:15:16.885Z,11.80
2023-08-08T05:20:20.141Z,11.90
2023-08-08T05:25:23.384Z,12.10
2023-08-08T05:30:27.992Z,12.30
2023-08-08T05:35:31.427Z,12.30
2023-08-08T05:40:36.611Z,12.60
2023-08-08T05:45:41.208Z,13.00
2023-08-08T05:50:44.550Z,13.10
2023-08-08T05:55:51.468Z,13.30
2023-08-08T06:00:56.067Z,13.60
2023-08-08T06:05:59.412Z,14.10
2023-08-08T06:11:02.574Z,15.70
2023-08-08T06:16:08.079Z,20.00
2023-08-08T06:21:11.449Z,17.40
2023-08-08T06:26:15.164Z,16.50
2023-08-08T06:31:21.135Z,16.60
2023-08-08T06:36:24.339Z,16.90
2023-08-08T06:41:27.576Z,17.20
2023-08-08T06:46:32.691Z,17.40
2023-08-08T06:51:36.237Z,18.10
2023-08-08T06:56:39.480Z,17.50
2023-08-08T07:01:44.050Z,17.60
2023-08-08T07:06:47.344Z,17.60
2023-08-08T07:11:50.608Z,18.00
2023-08-08T07:16:55.431Z,18.20
2023-08-08T07:21:59.157Z,19.10
2023-08-08T07:27:02.675Z,19.00
2023-08-08T07:32:08.231Z,19.40
2023-08-08T07:37:12.150Z,19.40
2023-08-08T07:42:15.712Z,19.30
2023-08-08T07:47:21.600Z,19.00
2023-08-08T07:52:25.247Z,19.50
2023-08-08T07:57:29.344Z,19.10
2023-08-08T08:02:34.172Z,18.80
2023-08-08T08:07:38.048Z,18.80
2023-08-08T08:12:42.422Z,18.80
2023-08-08T08:17:47.018Z,19.30
2023-08-08T08:22:50.509Z,19.50
2023-08-08T08:27:53.774Z,19.50
2023-08-08T08:32:59.036Z,19.50
2023-08-08T08:38:02.284Z,19.30
2023-08-08T08:43:06.591Z,19.60
2023-08-08T08:48:12.970Z,19.40
2023-08-08T08:53:18.842Z,19.20
2023-08-08T08:58:22.176Z,19.30
2023-08-08T09:03:27.044Z,19.10
2023-08-08T09:08:31.018Z,19.40
2023-08-08T09:13:39.807Z,19.70
2023-08-08T09:18:46.042Z,19.80
2023-08-08T09:23:50.100Z,20.20
2023-08-08T09:28:53.656Z,20.20
2023-08-08T09:33:58.871Z,20.40
2023-08-08T09:39:02.235Z,20.20
2023-08-08T09:44:06.042Z,20.00
2023-08-08T09:49:12.078Z,20.10
2023-08-08T09:54:18.585Z,20.30
2023-08-08T09:59:22.928Z,20.40
2023-08-08T10:04:28.280Z,20.50
2023-08-08T10:09:31.672Z,20.60
2023-08-08T10:14:38.275Z,20.10
2023-08-08T10:19:42.971Z,20.30
2023-08-08T10:24:49.772Z,20.20
2023-08-08T10:29:53.726Z,20.20
2023-08-08T10:35:02.200Z,19.90
2023-08-08T10:40:08.405Z,20.50
2023-08-08T10:45:13.498Z,20.40
2023-08-08T10:50:18.918Z,20.30
2023-08-08T10:55:23.421Z,20.40
2023-08-08T11:00:28.554Z,20.90
2023-08-08T11:05:34.047Z,21.50
2023-08-08T11:10:38.142Z,21.10
2023-08-08T11:15:41.570Z,21.10
2023-08-08T11:20:46.236Z,21.30
2023-08-08T11:26:17.308Z,21.00
2023-08-08T11:31:15.332Z,21.10
2023-08-08T11:36:21.105Z,21.20
2023-08-08T11:41:27.227Z,21.20
2023-08-08T11:46:31.484Z,21.10
2023-08-08T11:51:37.771Z,21.40
2023-08-08T11:56:41.247Z,21.60
2023-08-08T12:01:45.355Z,21.80
2023-08-08T12:06:49.978Z,21.70
2023-08-08T12:11:53.204Z,22.10
2023-08-08T12:16:57.102Z,22.10
2023-08-08T12:22:01.929Z,22.10
2023-08-08T12:27:05.414Z,22.00
2023-08-08T12:32:09.670Z,22.10
2023-08-08T12:37:14.464Z,22.70
2023-08-08T12:42:17.695Z,22.90
2023-08-08T12:47:21.825Z,22.80
2023-08-08T12:52:26.705Z,22.90
2023-08-08T12:57:30.988Z,23.10
2023-08-08T13:02:35.336Z,22.90
2023-08-08T13:07:40.052Z,22.80
2023-08-08T13:12:43.295Z,23.20
2023-08-08T13:17:46.602Z,23.20
2023-08-08T13:22:51.344Z,23.00
2023-08-08T13:27:54.646Z,23.20
2023-08-08T13:32:58.981Z,22.90
2023-08-08T13:38:05.322Z,23.00
2023-08-08T13:43:08.642Z,23.20
2023-08-08T13:48:11.842Z,23.50
2023-08-08T13:53:16.460Z,24.00
2023-08-08T13:58:23.075Z,24.00
2023-08-08T14:03:26.705Z,24.30
2023-08-08T14:08:31.342Z,24.40
2023-08-08T14:13:35.954Z,24.10
2023-08-08T14:18:39.220Z,24.10
2023-08-08T14:23:45.535Z,24.10
2023-08-08T14:28:48.744Z,24.00
2023-08-08T14:33:51.928Z,24.40
2023-08-08T14:38:56.689Z,24.60
2023-08-08T14:43:59.972Z,24.30
2023-08-08T14:49:05.326Z,24.70
2023-08-08T14:54:09.990Z,25.00
2023-08-08T14:59:13.269Z,24.90
2023-08-08T15:04:16.889Z,24.80
2023-08-08T15:09:24.199Z,24.90
2023-08-08T15:14:27.575Z,25.10
2023-08-08T15:19:30.856Z,24.90
2023-08-08T15:24:37.638Z,24.80
2023-08-08T15:29:41.144Z,24.70
2023-08-08T15:34:45.180Z,24.50
2023-08-08T15:39:49.805Z,24.80
2023-08-08T15:44:53.351Z,24.90
2023-08-08T15:49:56.712Z,24.90
2023-08-08T15:55:01.336Z,25.00
2023-08-08T16:00:05.045Z,25.30
2023-08-08T16:05:09.304Z,25.30
2023-08-08T16:10:14.356Z,25.20
2023-08-08T16:15:19.265Z,25.00
2023-08-08T16:20:25.515Z,24.90
2023-08-08T16:25:30.400Z,25.00
2023-08-08T16:30:33.738Z,25.00
2023-08-08T16:35:37.154Z,24.80
2023-08-08T16:40:41.979Z,24.80
2023-08-08T16:45:45.417Z,24.70
2023-08-08T16:50:48.894Z,24.70
2023-08-08T16:55:53.525Z,24.70
2023-08-08T17:00:57.304Z,24.80
2023-08-08T17:06:00.814Z,24.70
2023-08-08T17:11:05.562Z,24.60
2023-08-08T17:16:09.118Z,24.50
2023-08-08T17:21:12.444Z,24.40
2023-08-08T17:26:17.146Z,24.00
2023-08-08T17:31:20.700Z,23.90
2023-08-08T17:36:24.017Z,23.60
2023-08-08T17:41:28.762Z,23.50
2023-08-08T17:46:32.236Z,23.20
2023-08-08T17:51:35.490Z,23.10
2023-08-08T17:56:40.047Z,23.10
2023-08-08T18:01:44.545Z,23.00
2023-08-08T18:06:47.802Z,22.90
2023-08-08T18:11:52.640Z,22.80
2023-08-08T18:16:55.923Z,22.60
2023-08-08T18:21:59.390Z,22.50
2023-08-08T18:27:04.316Z,22.40
2023-08-08T18:32:08.449Z,22.10
2023-08-08T18:37:12.086Z,21.80
2023-08-08T18:42:16.755Z,21.50
2023-08-08T18:47:20.549Z,21.20
2023-08-08T18:52:23.841Z,21.10
2023-08-08T18:57:28.676Z,20.90
2023-08-08T19:02:32.029Z,20.70
2023-08-08T19:07:35.305Z,20.60
2023-08-08T19:12:39.946Z,20.50
2023-08-08T19:17:55.462Z,20.30
2023-08-08T19:22:59.545Z,20.20
2023-08-08T19:28:04.364Z,20.20
2023-08-08T19:33:07.633Z,20.10
2023-08-08T19:38:10.831Z,20.00
2023-08-08T19:43:15.414Z,20.10
2023-08-08T19:48:18.638Z,20.00
2023-08-08T19:53:22.901Z,19.80
2023-08-08T19:58:28.164Z,19.60
2023-08-08T20:03:31.661Z,19.60
2023-08-08T20:08:35.279Z,19.50
2023-08-08T20:13:39.892Z,19.40
2023-08-08T20:18:43.169Z,19.20
2023-08-08T20:23:46.433Z,18.90
2023-08-08T20:28:51.575Z,18.80
2023-08-08T20:33:57.524Z,18.70
2023-08-08T20:39:00.856Z,18.80
2023-08-08T20:44:08.118Z,18.70
2023-08-08T20:49:11.430Z,18.60
2023-08-08T20:54:14.781Z,18.60
2023-08-08T20:59:19.524Z,18.40
2023-08-08T21:04:23.193Z,18.40
2023-08-08T21:09:26.640Z,18.30
2023-08-08T21:14:31.272Z,18.10
2023-08-08T21:19:34.497Z,18.10
2023-08-08T21:24:37.758Z,18.00
2023-08-08T21:29:43.989Z,17.90
2023-08-08T21:34:47.276Z,17.90
2023-08-08T21:39:50.564Z,17.80
2023-08-08T21:44:55.101Z,17.90
2023-08-08T21:49:58.942Z,17.80
2023-08-08T21:55:02.446Z,17.80
2023-08-08T22:00:13.955Z,17.60
2023-08-08T22:05:17.383Z,17.60
2023-08-08T22:10:21.004Z,17.60
2023-08-08T22:15:25.597Z,17.50
2023-08-08T22:20:28.977Z,17.50
2023-08-08T22:25:32.373Z,17.40
2023-08-08T22:30:37.182Z,17.30
2023-08-08T22:35:40.555Z,17.00
2023-08-08T22:40:45.591Z,16.90
2023-08-08T22:45:51.562Z,16.80
2023-08-08T22:50:54.792Z,16.80
2023-08-08T22:55:58.062Z,16.40
2023-08-08T23:01:02.704Z,16.40
2023-08-08T23:06:06.028Z,16.50
2023-08-08T23:11:09.297Z,16.40
2023-08-08T23:16:13.973Z,16.50
2023-08-08T23:21:17.268Z,16.40
2023-08-08T23:26:20.600Z,16.50
2023-08-08T23:31:25.233Z,16.70
2023-08-08T23:36:28.730Z,16.80
2023-08-08T23:41:32.013Z,16.80
2023-08-08T23:46:36.627Z,17.00
2023-08-08T23:51:44.317Z,17.00
2023-08-08T23:56:47.553Z,16.80
